Time;durP1;ratioP1;P1;durP2;ratioP2;P2;SDS_P1;SDS_P2;PMS_P1;PMS_P2;Temp;Humidity;BMP_temperature;BMP_pressure;BME280_temperature;BME280_humidity;BME280_pressure;Samples;Min_cycle;Max_cycle;Signal;HPM_P1;HPM_P2
2021/08/19 00:02:17;;;;;;;3.45;1.50;;;;;;;17.66;nan;100522.59;5010266;28;20208;-75
2021/08/19 00:04:42;;;;;;;1.92;1.40;;;;;;;17.69;nan;100527.56;5007051;28;20038;-76
2021/08/19 00:07:08;;;;;;;2.20;1.40;;;;;;;17.67;nan;100523.44;5021928;28;20029;-76
2021/08/19 00:09:36;;;;;;;2.97;1.50;;;;;;;17.66;nan;100525.28;5026076;28;20113;-76
2021/08/19 00:12:03;;;;;;;2.00;1.50;;;;;;;17.67;nan;100528.78;5027204;28;20120;-76
2021/08/19 00:14:28;;;;;;;2.13;1.55;;;;;;;17.66;nan;100522.59;5026811;28;20038;-76
2021/08/19 00:16:54;;;;;;;3.15;1.67;;;;;;;17.68;nan;100533.09;5024260;28;20486;-76
2021/08/19 00:19:19;;;;;;;2.28;1.60;;;;;;;17.63;nan;100528.34;5031146;28;20136;-76
2021/08/19 00:21:44;;;;;;;2.10;1.40;;;;;;;17.61;nan;100528.56;5032131;28;20053;-76
2021/08/19 00:24:09;;;;;;;2.03;1.40;;;;;;;17.60;nan;100515.38;5030980;28;20038;-76
2021/08/19 00:26:35;;;;;;;2.08;1.50;;;;;;;17.59;nan;100519.06;5029300;28;20454;-76
2021/08/19 00:29:00;;;;;;;1.92;1.50;;;;;;;17.61;nan;100520.53;5008115;28;20269;-76
2021/08/19 00:31:25;;;;;;;3.33;1.50;;;;;;;17.65;nan;100520.97;5023564;28;20119;-76
2021/08/19 00:33:52;;;;;;;2.75;1.70;;;;;;;17.69;nan;100514.19;5023812;28;20048;-76
2021/08/19 00:36:17;;;;;;;3.03;1.63;;;;;;;17.66;nan;100505.72;5000770;28;20065;-76
2021/08/19 00:38:46;;;;;;;2.38;1.90;;;;;;;17.62;nan;100514.16;5026917;28;20446;-76
2021/08/19 00:41:11;;;;;;;2.70;1.52;;;;;;;17.59;nan;100511.03;5017785;28;20037;-76
2021/08/19 00:43:38;;;;;;;3.28;1.60;;;;;;;17.61;nan;100511.66;5030543;28;20040;-76
2021/08/19 00:46:27;;;;;;;2.85;1.67;;;;;;;17.63;nan;100510.44;5028625;28;20521;-76
2021/08/19 00:49:05;;;;;;;2.00;1.73;;;;;;;17.61;nan;100498.31;5019650;28;20399;-76
2021/08/19 00:51:33;;;;;;;2.17;1.63;;;;;;;17.56;nan;100498.06;5031357;28;20550;-76
2021/08/19 00:53:59;;;;;;;2.60;1.90;;;;;;;17.51;nan;100489.84;5031045;28;20030;-76
2021/08/19 00:56:24;;;;;;;2.40;1.80;;;;;;;17.53;nan;100493.94;5019078;28;20041;-76
2021/08/19 00:58:50;;;;;;;2.45;2.00;;;;;;;17.59;nan;100495.84;5012021;28;20053;-76
2021/08/19 01:01:16;;;;;;;2.30;1.58;;;;;;;17.54;nan;100492.94;5025182;28;20120;-76
2021/08/19 01:03:41;;;;;;;2.75;1.75;;;;;;;17.53;nan;100485.13;5027246;28;20367;-75
2021/08/19 01:06:07;;;;;;;3.65;1.90;;;;;;;17.49;nan;100491.88;5028473;28;20124;-76
2021/08/19 01:08:34;;;;;;;2.78;1.90;;;;;;;17.47;nan;100485.91;5031302;28;20022;-76
2021/08/19 01:11:03;;;;;;;3.13;2.25;;;;;;;17.52;nan;100489.66;5029856;28;20042;-76
2021/08/19 01:13:28;;;;;;;2.25;1.90;;;;;;;17.50;nan;100485.53;5029203;28;20560;-77
2021/08/19 01:15:54;;;;;;;3.60;2.03;;;;;;;17.50;nan;100482.84;5020622;28;20041;-76
2021/08/19 01:18:19;;;;;;;3.33;1.92;;;;;;;17.49;nan;100476.66;5013238;28;20037;-76
2021/08/19 01:20:44;;;;;;;2.58;1.90;;;;;;;17.50;nan;100481.00;5028512;28;20074;-76
2021/08/19 01:23:10;;;;;;;2.92;2.05;;;;;;;17.47;nan;100476.06;5031084;28;20035;-75
2021/08/19 01:25:35;;;;;;;2.35;1.95;;;;;;;17.40;nan;100480.53;5025605;28;20197;-76
2021/08/19 01:28:00;;;;;;;4.78;2.50;;;;;;;17.41;nan;100474.16;5018315;28;20089;-76
2021/08/19 01:30:26;;;;;;;3.63;2.25;;;;;;;17.45;nan;100474.56;5004121;28;20174;-76
2021/08/19 01:32:53;;;;;;;2.67;2.10;;;;;;;17.45;nan;100475.41;5026364;28;20042;-76
2021/08/19 01:35:30;;;;;;;2.58;1.90;;;;;;;17.43;nan;100474.78;5020069;28;20042;-76
2021/08/19 01:37:55;;;;;;;2.50;2.00;;;;;;;17.45;nan;100464.72;5004122;28;20434;-76
2021/08/19 01:40:21;;;;;;;2.22;1.90;;;;;;;17.42;nan;100465.09;5018991;28;20064;-76
2021/08/19 01:42:46;;;;;;;2.42;2.00;;;;;;;17.38;nan;100453.19;5028030;28;20034;-76
2021/08/19 01:45:15;;;;;;;2.45;1.90;;;;;;;17.31;nan;100449.66;5026353;28;20034;-75
2021/08/19 01:47:40;;;;;;;3.38;2.15;;;;;;;17.38;nan;100450.50;5017914;28;20056;-76
2021/08/19 01:50:06;;;;;;;2.67;2.03;;;;;;;17.35;nan;100457.06;5028975;28;20116;-76
2021/08/19 01:52:31;;;;;;;3.85;2.38;;;;;;;17.26;nan;100468.94;5021824;28;20111;-77
2021/08/19 01:54:57;;;;;;;2.60;2.10;;;;;;;17.27;nan;100473.25;5016287;28;20145;-76
2021/08/19 01:57:23;;;;;;;2.22;1.75;;;;;;;17.32;nan;100478.81;5028628;28;20041;-76
2021/08/19 01:59:50;;;;;;;2.75;1.80;;;;;;;17.33;nan;100482.34;5031673;28;20049;-76
2021/08/19 02:02:16;;;;;;;2.63;2.10;;;;;;;17.38;nan;100485.25;5018977;28;20295;-76
2021/08/19 02:04:41;;;;;;;2.77;2.00;;;;;;;17.37;nan;100487.06;5024695;28;20030;-76
2021/08/19 02:07:06;;;;;;;2.05;1.70;;;;;;;17.41;nan;100479.50;5036308;28;20501;-76
2021/08/19 02:09:31;;;;;;;3.78;2.20;;;;;;;17.43;nan;100485.47;5044922;28;20458;-76
2021/08/19 02:11:57;;;;;;;4.20;2.10;;;;;;;17.41;nan;100480.31;5044859;28;20045;-76
2021/08/19 02:14:22;;;;;;;2.67;2.10;;;;;;;17.37;nan;100480.91;5023277;28;20029;-76
2021/08/19 02:16:47;;;;;;;3.00;1.70;;;;;;;17.35;nan;100485.63;5025445;28;20068;-76
2021/08/19 02:19:13;;;;;;;2.72;1.95;;;;;;;17.40;nan;100478.69;5024044;28;20045;-76
2021/08/19 02:21:39;;;;;;;4.20;2.00;;;;;;;17.40;nan;100476.00;5027399;28;20172;-76
2021/08/19 02:24:05;;;;;;;3.38;2.20;;;;;;;17.41;nan;100474.16;5019423;28;20030;-76
2021/08/19 02:26:30;;;;;;;4.28;2.20;;;;;;;17.41;nan;100479.50;4999731;28;20405;-76
2021/08/19 02:28:55;;;;;;;3.10;2.00;;;;;;;17.36;nan;100480.09;5029457;28;20022;-76
2021/08/19 02:31:21;;;;;;;2.90;2.37;;;;;;;17.33;nan;100472.47;5029268;28;20033;-76
2021/08/19 02:33:46;;;;;;;2.90;2.10;;;;;;;17.38;nan;100466.53;5025295;28;20569;-76
2021/08/19 02:36:11;;;;;;;3.63;2.20;;;;;;;17.39;nan;100468.19;5017993;28;20052;-76
2021/08/19 02:38:37;;;;;;;2.25;1.80;;;;;;;17.32;nan;100467.31;5018171;28;20037;-76
2021/08/19 02:41:02;;;;;;;2.35;1.95;;;;;;;17.35;nan;100470.44;5018887;28;20029;-76
2021/08/19 02:43:27;;;;;;;4.60;2.20;;;;;;;17.32;nan;100465.47;5023077;28;20044;-76
2021/08/19 02:45:53;;;;;;;2.50;1.85;;;;;;;17.27;nan;100472.44;5012881;28;20037;-76
2021/08/19 02:48:18;;;;;;;3.38;2.63;;;;;;;17.26;nan;100468.94;5028420;28;20376;-76
2021/08/19 02:50:43;;;;;;;4.25;2.03;;;;;;;17.30;nan;100469.34;5009746;28;20121;-75
2021/08/19 02:53:09;;;;;;;2.70;2.35;;;;;;;17.27;nan;100465.22;5011103;28;20493;-75
2021/08/19 02:55:34;;;;;;;2.97;2.00;;;;;;;17.30;nan;100467.50;5019647;28;20072;-75
2021/08/19 02:57:59;;;;;;;2.83;2.08;;;;;;;17.25;nan;100466.47;5012044;28;20121;-75
2021/08/19 03:00:25;;;;;;;2.33;1.88;;;;;;;17.23;nan;100465.81;5025005;28;20132;-75
2021/08/19 03:02:50;;;;;;;2.72;2.05;;;;;;;17.17;nan;100462.91;5027302;28;20517;-75
2021/08/19 03:05:15;;;;;;;3.72;2.28;;;;;;;17.20;nan;100462.53;5028658;28;20034;-78
2021/08/19 03:07:40;;;;;;;4.25;2.30;;;;;;;17.27;nan;100464.41;5020505;28;20087;-75
2021/08/19 03:10:07;;;;;;;4.93;2.30;;;;;;;17.22;nan;100464.19;4996668;28;20033;-77
2021/08/19 03:12:32;;;;;;;3.85;2.58;;;;;;;17.21;nan;100458.03;5024518;28;20034;-75
2021/08/19 03:14:57;;;;;;;3.38;2.40;;;;;;;17.15;nan;100461.47;5007842;28;20030;-75
2021/08/19 03:17:23;;;;;;;3.65;2.20;;;;;;;17.17;nan;100462.91;5026421;28;20076;-75
2021/08/19 03:19:48;;;;;;;2.95;2.40;;;;;;;17.20;nan;100462.53;5015747;28;20046;-75
2021/08/19 03:22:15;;;;;;;3.38;2.30;;;;;;;17.23;nan;100463.16;5027118;28;20061;-76
2021/08/19 03:24:41;;;;;;;3.55;2.13;;;;;;;17.27;nan;100459.06;5025048;28;20034;-75
2021/08/19 03:27:07;;;;;;;4.00;2.40;;;;;;;17.25;nan;100464.59;5015897;28;20030;-75
2021/08/19 03:29:34;;;;;;;3.05;2.10;;;;;;;17.27;nan;100464.41;5023326;28;20030;-75
2021/08/19 03:32:00;;;;;;;4.47;2.50;;;;;;;17.25;nan;100458.44;5022968;28;20026;-75
2021/08/19 03:34:25;;;;;;;3.72;2.30;;;;;;;17.23;nan;100460.47;5020532;28;20068;-74
2021/08/19 03:36:51;;;;;;;3.70;2.67;;;;;;;17.29;nan;100462.38;5024299;28;20038;-75
2021/08/19 03:39:16;;;;;;;2.70;2.30;;;;;;;17.27;nan;100459.88;5013928;28;20116;-75
2021/08/19 03:41:41;;;;;;;3.60;2.22;;;;;;;17.28;nan;100466.91;5030959;28;20033;-75
2021/08/19 03:44:09;;;;;;;3.80;2.47;;;;;;;17.25;nan;100467.28;5011594;28;20038;-76
2021/08/19 03:46:36;;;;;;;3.78;2.38;;;;;;;17.22;nan;100473.03;5014331;28;20044;-75
2021/08/19 03:49:02;;;;;;;4.30;2.10;;;;;;;17.22;nan;100472.19;5032103;28;20117;-76
2021/08/19 03:51:29;;;;;;;4.78;2.55;;;;;;;17.17;nan;100476.28;5022936;28;20118;-78
2021/08/19 03:53:55;;;;;;;4.95;2.22;;;;;;;17.15;nan;100466.81;5031933;28;20041;-76
2021/08/19 03:56:22;;;;;;;3.92;2.53;;;;;;;17.15;nan;100464.16;5026874;28;20084;-75
2021/08/19 03:58:47;;;;;;;3.28;2.20;;;;;;;17.09;nan;100463.09;5021330;28;20037;-75
2021/08/19 04:01:12;;;;;;;2.95;2.40;;;;;;;17.15;nan;100466.81;5026333;28;20037;-75
2021/08/19 04:03:38;;;;;;;3.08;2.70;;;;;;;17.15;nan;100467.63;5006027;28;20034;-74
2021/08/19 04:06:03;;;;;;;3.97;2.53;;;;;;;17.04;nan;100470.03;5019591;28;20120;-75
2021/08/19 04:08:31;;;;;;;3.45;2.60;;;;;;;16.98;nan;100468.97;5031964;28;20029;-75
2021/08/19 04:10:56;;;;;;;3.25;2.60;;;;;;;16.84;nan;100451.19;5004733;28;20087;-75
2021/08/19 04:13:21;;;;;;;2.92;2.42;;;;;;;16.77;nan;100462.63;5031807;28;20503;-74
2021/08/19 04:15:47;;;;;;;4.88;2.95;;;;;;;16.76;nan;100460.97;5023344;28;20042;-75
2021/08/19 04:18:13;;;;;;;4.07;3.00;;;;;;;16.79;nan;100459.78;5026003;28;20038;-75
2021/08/19 04:20:39;;;;;;;2.90;2.58;;;;;;;16.81;nan;100457.75;5016167;28;20490;-75
2021/08/19 04:23:04;;;;;;;3.20;2.60;;;;;;;16.80;nan;100458.75;5031606;28;20061;-75
2021/08/19 04:25:30;;;;;;;3.55;2.70;;;;;;;16.89;nan;100473.63;5029126;28;20106;-75
2021/08/19 04:27:55;;;;;;;4.10;2.85;;;;;;;16.93;nan;100472.22;5031277;28;20088;-75
2021/08/19 04:30:21;;;;;;;3.67;2.83;;;;;;;16.88;nan;100471.16;5006302;28;20153;-74
2021/08/19 04:32:46;;;;;;;4.93;2.83;;;;;;;16.87;nan;100462.31;5027619;28;20041;-78
2021/08/19 04:35:12;;;;;;;3.83;2.70;;;;;;;16.88;nan;100460.47;5026312;28;20149;-77
2021/08/19 04:37:37;;;;;;;4.63;2.92;;;;;;;16.86;nan;100467.84;5031070;28;20040;-75
2021/08/19 04:40:04;;;;;;;4.88;3.00;;;;;;;16.82;nan;100461.25;5031240;28;20029;-78
2021/08/19 04:42:29;;;;;;;5.05;2.80;;;;;;;16.85;nan;100461.69;5030716;28;20044;-75
2021/08/19 04:44:55;;;;;;;5.03;2.70;;;;;;;16.90;nan;100464.59;5029854;28;20421;-75
2021/08/19 04:47:20;;;;;;;5.85;2.85;;;;;;;16.85;nan;100461.69;5031608;28;20494;-75
2021/08/19 04:49:45;;;;;;;4.93;2.97;;;;;;;16.81;nan;100463.09;5023140;28;20045;-75
2021/08/19 04:52:10;;;;;;;3.42;3.00;;;;;;;16.92;nan;100467.91;5028122;28;20155;-76
2021/08/19 04:54:36;;;;;;;4.97;3.30;;;;;;;16.89;nan;100467.47;5009761;28;20108;-76
2021/08/19 04:57:01;;;;;;;3.88;2.97;;;;;;;16.91;nan;100471.59;5026104;28;20139;-76
2021/08/19 04:59:26;;;;;;;5.65;3.10;;;;;;;16.94;nan;100478.38;5024463;28;20056;-76
2021/08/19 05:01:52;;;;;;;4.97;3.08;;;;;;;17.01;nan;100473.09;5019022;28;20495;-76
2021/08/19 05:04:17;;;;;;;3.28;2.88;;;;;;;16.98;nan;100475.13;5024437;28;20073;-76
2021/08/19 05:06:42;;;;;;;3.75;3.10;;;;;;;17.02;nan;100480.06;5026160;28;20041;-76
2021/08/19 05:09:08;;;;;;;3.90;3.00;;;;;;;17.03;nan;100481.75;5027241;28;20034;-76
2021/08/19 05:11:34;;;;;;;4.18;3.30;;;;;;;17.00;nan;100485.63;5023692;28;20037;-75
2021/08/19 05:14:00;;;;;;;6.00;3.53;;;;;;;17.02;nan;100474.72;5019180;28;20564;-75
2021/08/19 05:16:26;;;;;;;6.30;3.58;;;;;;;17.06;nan;100481.34;5024933;28;20037;-75
2021/08/19 05:18:52;;;;;;;4.55;3.60;;;;;;;17.03;nan;100489.75;5023753;28;20038;-75
2021/08/19 05:21:18;;;;;;;5.40;3.33;;;;;;;16.99;nan;100486.63;5019059;28;20034;-75
2021/08/19 05:23:43;;;;;;;3.58;3.10;;;;;;;16.95;nan;100493.41;5028502;28;20073;-76
2021/08/19 05:26:09;;;;;;;4.22;3.42;;;;;;;17.01;nan;100481.94;5004617;28;20040;-75
2021/08/19 05:28:34;;;;;;;4.68;3.40;;;;;;;17.04;nan;100480.72;5022831;28;20061;-75
2021/08/19 05:31:00;;;;;;;4.18;3.28;;;;;;;17.06;nan;100484.84;5026678;28;20522;-75
2021/08/19 05:33:26;;;;;;;5.05;3.30;;;;;;;17.08;nan;100490.81;5024577;28;20041;-75
2021/08/19 05:35:51;;;;;;;5.50;3.22;;;;;;;16.98;nan;100493.81;5028500;28;20064;-76
2021/08/19 05:38:17;;;;;;;3.72;3.20;;;;;;;16.96;nan;100485.19;5030241;28;20435;-75
2021/08/19 05:40:42;;;;;;;3.88;3.30;;;;;;;17.05;nan;100482.38;5029997;28;20049;-75
2021/08/19 05:43:07;;;;;;;4.43;3.50;;;;;;;17.06;nan;100484.84;5023729;28;20033;-75
2021/08/19 05:45:33;;;;;;;4.60;3.95;;;;;;;17.08;nan;100484.66;5029732;28;20041;-76
2021/08/19 05:48:01;;;;;;;5.15;3.90;;;;;;;17.08;nan;100488.13;5027892;28;20041;-76
2021/08/19 05:50:26;;;;;;;4.95;3.70;;;;;;;17.08;nan;100477.44;5030351;28;20064;-76
2021/08/19 05:52:52;;;;;;;7.43;3.97;;;;;;;17.03;nan;100482.56;5029798;28;20462;-75
2021/08/19 05:55:17;;;;;;;6.22;4.00;;;;;;;17.09;nan;100476.44;5011674;28;20057;-75
2021/08/19 05:57:43;;;;;;;5.82;4.00;;;;;;;17.12;nan;100483.25;5030580;28;20042;-76
2021/08/19 06:00:09;;;;;;;4.82;3.45;;;;;;;17.08;nan;100485.47;5030068;28;20041;-75
2021/08/19 06:02:35;;;;;;;5.13;3.85;;;;;;;17.18;nan;100485.97;5029932;28;20029;-76
2021/08/19 06:05:00;;;;;;;5.75;3.45;;;;;;;17.13;nan;100490.22;5029124;28;20526;-76
2021/08/19 06:07:26;;;;;;;4.72;3.80;;;;;;;17.24;nan;100494.22;5012540;28;20410;-76
2021/08/19 06:09:51;;;;;;;5.03;3.88;;;;;;;17.25;nan;100506.53;5024842;28;20034;-76
2021/08/19 06:12:17;;;;;;;4.10;3.70;;;;;;;17.34;nan;100500.84;5019806;28;20041;-76
2021/08/19 06:14:43;;;;;;;4.60;3.67;;;;;;;17.41;nan;100501.72;5024891;28;20049;-75
2021/08/19 06:17:09;;;;;;;3.75;3.35;;;;;;;17.43;nan;100512.22;5029938;28;20722;-74
2021/08/19 06:19:35;;;;;;;5.15;3.70;;;;;;;17.46;nan;100511.81;5030491;28;20045;-76
2021/08/19 06:22:00;;;;;;;4.80;3.83;;;;;;;17.46;nan;100513.66;5030877;28;20044;-76
2021/08/19 06:24:25;;;;;;;4.32;3.40;;;;;;;17.46;nan;100511.00;5030020;28;20037;-76
2021/08/19 06:26:51;;;;;;;6.10;3.45;;;;;;;17.57;nan;100513.13;5030438;28;20041;-75
2021/08/19 06:29:16;;;;;;;5.60;3.85;;;;;;;17.57;nan;100505.91;5030160;28;20164;-75
2021/08/19 06:31:41;;;;;;;4.20;3.78;;;;;;;17.60;nan;100504.69;5012751;28;20120;-76
2021/08/19 06:34:07;;;;;;;5.50;4.00;;;;;;;17.64;nan;100508.63;5030192;28;20056;-75
2021/08/19 06:36:32;;;;;;;5.80;4.10;;;;;;;17.71;nan;100511.31;5030079;28;20041;-75
2021/08/19 06:38:57;;;;;;;4.97;4.03;;;;;;;17.75;nan;100507.22;5030006;28;20037;-75
2021/08/19 06:41:24;;;;;;;3.97;3.53;;;;;;;17.80;nan;100512.78;5029791;28;20053;-75
2021/08/19 06:43:50;;;;;;;5.00;3.10;;;;;;;17.77;nan;100497.97;5030358;28;20080;-75
2021/08/19 06:46:16;;;;;;;4.03;3.38;;;;;;;17.77;nan;100500.63;5029396;28;20044;-75
2021/08/19 06:48:41;;;;;;;5.35;3.83;;;;;;;17.86;nan;100511.22;5026005;28;20045;-75
2021/08/19 06:51:06;;;;;;;4.55;3.72;;;;;;;17.96;nan;100504.44;5027636;28;20056;-75
2021/08/19 06:53:32;;;;;;;4.57;3.63;;;;;;;18.01;nan;100502.00;5030330;28;20038;-76
2021/08/19 06:55:57;;;;;;;4.18;3.70;;;;;;;18.09;nan;100501.00;5012720;28;20124;-76
2021/08/19 06:58:22;;;;;;;3.83;3.17;;;;;;;18.21;nan;100498.53;5029429;28;20517;-75
2021/08/19 07:00:47;;;;;;;4.05;3.13;;;;;;;18.17;nan;100502.66;5030111;28;20037;-76
2021/08/19 07:03:16;;;;;;;3.83;3.42;;;;;;;18.30;nan;100502.69;5029611;28;20534;-75
2021/08/19 07:05:43;;;;;;;4.78;3.28;;;;;;;18.33;nan;100496.94;5033852;28;20033;-75
2021/08/19 07:08:08;;;;;;;4.75;3.08;;;;;;;18.37;nan;100503.50;5035851;28;20509;-75
2021/08/19 07:10:34;;;;;;;5.10;3.25;;;;;;;18.48;nan;100498.59;5036124;28;20037;-75
2021/08/19 07:12:59;;;;;;;5.82;3.70;;;;;;;18.53;nan;100504.16;5036628;28;20091;-76
2021/08/19 07:15:24;;;;;;;4.57;3.60;;;;;;;18.57;nan;100502.75;5036240;28;20091;-76
2021/08/19 07:17:50;;;;;;;4.78;3.80;;;;;;;18.64;nan;100506.25;5036840;28;20041;-76
2021/08/19 07:20:15;;;;;;;7.18;3.80;;;;;;;18.73;nan;100510.34;5035540;28;20133;-76
2021/08/19 07:22:45;;;;;;;5.57;3.47;;;;;;;18.65;nan;100511.38;5036479;28;20037;-75
2021/08/19 07:25:11;;;;;;;3.65;3.25;;;;;;;18.72;nan;100503.34;5036116;28;20146;-75
2021/08/19 07:27:36;;;;;;;4.18;3.38;;;;;;;18.84;nan;100508.94;5036253;28;20506;-76
2021/08/19 07:30:02;;;;;;;4.47;3.20;;;;;;;18.78;nan;100510.59;5036224;28;20112;-76
2021/08/19 07:32:28;;;;;;;3.78;3.17;;;;;;;18.81;nan;100504.00;5035813;28;20107;-75
2021/08/19 07:34:53;;;;;;;4.78;3.10;;;;;;;18.93;nan;100512.25;5018169;28;20069;-75
2021/08/19 07:37:18;;;;;;;3.85;2.67;;;;;;;18.94;nan;100505.84;5035935;28;20112;-76
2021/08/19 07:39:44;;;;;;;4.93;3.20;;;;;;;18.95;nan;100511.00;5035167;28;20054;-75
2021/08/19 07:42:09;;;;;;;4.63;3.22;;;;;;;19.05;nan;100513.28;5034959;28;20120;-75
2021/08/19 07:44:34;;;;;;;3.40;3.10;;;;;;;18.97;nan;100514.28;5035391;28;20030;-76
2021/08/19 07:47:00;;;;;;;3.42;2.83;;;;;;;18.93;nan;100512.25;5035539;28;20128;-76
2021/08/19 07:49:25;;;;;;;3.63;2.58;;;;;;;18.94;nan;100508.53;5035238;28;20029;-76
2021/08/19 07:51:50;;;;;;;3.95;2.65;;;;;;;18.76;nan;100509.09;5017697;28;20112;-75
2021/08/19 07:54:17;;;;;;;3.40;2.55;;;;;;;18.82;nan;100511.81;5033788;28;20132;-75
2021/08/19 07:56:44;;;;;;;3.78;2.70;;;;;;;18.88;nan;100507.50;5034618;28;20128;-75
2021/08/19 07:59:09;;;;;;;4.20;2.72;;;;;;;19.03;nan;100504.59;5035162;28;20410;-75
2021/08/19 08:01:35;;;;;;;4.30;3.00;;;;;;;19.15;nan;100508.31;5035755;28;20033;-75
2021/08/19 08:04:00;;;;;;;4.43;2.78;;;;;;;19.22;nan;100511.78;5018065;28;20143;-76
2021/08/19 08:06:25;;;;;;;4.53;2.78;;;;;;;19.23;nan;100512.59;5035209;28;20418;-76
2021/08/19 08:08:52;;;;;;;3.40;2.40;;;;;;;19.07;nan;100509.34;5035815;28;20039;-76
2021/08/19 08:11:17;;;;;;;3.00;2.25;;;;;;;19.15;nan;100513.66;5035585;28;20096;-76
2021/08/19 08:13:42;;;;;;;3.75;2.60;;;;;;;19.03;nan;100513.47;5035448;28;20471;-75
2021/08/19 08:16:08;;;;;;;4.00;2.60;;;;;;;19.03;nan;100520.69;5033220;28;20311;-76
2021/08/19 08:18:33;;;;;;;4.45;2.72;;;;;;;18.97;nan;100524.19;5032102;28;20063;-75
2021/08/19 08:21:01;;;;;;;4.75;2.70;;;;;;;18.92;nan;100524.81;5032382;28;20053;-75
2021/08/19 08:23:30;;;;;;;3.92;2.70;;;;;;;18.97;nan;100526.88;5032353;28;20033;-75
2021/08/19 08:25:55;;;;;;;3.45;2.78;;;;;;;18.79;nan;100517.59;5032182;28;20057;-75
2021/08/19 08:28:26;;;;;;;3.40;2.65;;;;;;;18.80;nan;100529.13;5013313;28;20111;-76
2021/08/19 08:30:51;;;;;;;3.45;2.47;;;;;;;18.80;nan;100527.28;5032196;28;20425;-75
2021/08/19 08:33:17;;;;;;;4.32;2.63;;;;;;;18.94;nan;100530.78;5031986;28;20136;-76
2021/08/19 08:35:43;;;;;;;3.58;2.30;;;;;;;18.97;nan;100524.19;5031561;28;20030;-76
2021/08/19 08:38:11;;;;;;;3.08;2.47;;;;;;;19.11;nan;100523.13;5031350;28;20040;-76
2021/08/19 08:40:39;;;;;;;4.43;2.45;;;;;;;19.16;nan;100523.34;5031587;28;20037;-76
2021/08/19 08:43:05;;;;;;;3.00;2.38;;;;;;;19.18;nan;100531.19;5031788;28;20576;-76
2021/08/19 08:45:34;;;;;;;3.63;2.70;;;;;;;19.22;nan;100522.50;5031838;28;20042;-75
2021/08/19 08:48:09;;;;;;;4.00;2.83;;;;;;;19.13;nan;100522.94;5032009;28;20095;-75
2021/08/19 08:50:35;;;;;;;3.10;2.47;;;;;;;19.18;nan;100532.00;5031352;28;20033;-75
2021/08/19 08:53:00;;;;;;;3.05;2.15;;;;;;;19.20;nan;100532.63;5031569;28;20394;-75
2021/08/19 08:55:26;;;;;;;2.90;2.25;;;;;;;19.37;nan;100529.50;5031822;28;20033;-75
2021/08/19 08:57:54;;;;;;;4.10;2.20;;;;;;;19.12;nan;100534.72;5031585;28;20037;-75
2021/08/19 09:00:20;;;;;;;2.72;2.00;;;;;;;18.74;nan;100537.97;5031620;28;20380;-75
2021/08/19 09:02:46;;;;;;;4.05;3.03;;;;;;;18.44;nan;100541.84;5031646;28;20037;-76
2021/08/19 09:05:15;;;;;;;4.32;2.90;;;;;;;18.22;nan;100543.03;5031748;28;20057;-76
2021/08/19 09:07:41;;;;;;;3.63;2.92;;;;;;;18.20;nan;100537.03;5031459;28;20429;-75
2021/08/19 09:10:07;;;;;;;4.63;3.63;;;;;;;18.16;nan;100533.97;5030472;28;20045;-76
2021/08/19 09:12:42;;;;;;;4.97;3.08;;;;;;;18.34;nan;100529.88;5013509;28;20068;-75
2021/08/19 09:15:10;;;;;;;4.07;2.80;;;;;;;18.54;nan;100529.91;5013574;28;20037;-76
2021/08/19 09:17:51;;;;;;;4.00;3.10;;;;;;;18.84;nan;100533.88;5031000;28;20037;-76
2021/08/19 09:20:18;;;;;;;4.43;2.75;;;;;;;19.05;nan;100532.84;5030685;28;20522;-76
2021/08/19 09:22:59;;;;;;;6.22;2.88;;;;;;;19.20;nan;100532.63;5031079;28;20041;-75
2021/08/19 09:25:45;;;;;;;3.60;2.78;;;;;;;19.48;nan;100536.91;5031376;28;20025;-76
2021/08/19 09:28:19;;;;;;;3.45;2.92;;;;;;;19.67;nan;100536.03;5030185;28;20025;-76
2021/08/19 09:30:51;;;;;;;4.78;2.65;;;;;;;19.85;nan;100531.84;5030512;28;20086;-76
2021/08/19 09:33:26;;;;;;;3.88;2.88;;;;;;;19.98;nan;100533.69;5031165;28;20394;-75
2021/08/19 09:35:53;;;;;;;4.15;2.97;;;;;;;19.94;nan;100535.94;5030824;28;20033;-76
2021/08/19 09:38:21;;;;;;;5.03;3.50;;;;;;;19.69;nan;100533.19;5030772;28;20120;-76
2021/08/19 09:41:04;;;;;;;5.35;3.28;;;;;;;19.43;nan;100534.84;5030979;28;20135;-76
2021/08/19 09:43:49;;;;;;;4.72;3.70;;;;;;;19.53;nan;100529.06;5025639;28;20159;-75
2021/08/19 09:46:31;;;;;;;5.25;4.05;;;;;;;19.70;nan;100527.56;5030386;28;20037;-75
2021/08/19 09:48:56;;;;;;;4.55;3.63;;;;;;;19.64;nan;100524.88;5012556;28;20034;-75
2021/08/19 09:51:24;;;;;;;5.38;3.45;;;;;;;19.83;nan;100529.41;5010501;28;20044;-75
2021/08/19 09:53:52;;;;;;;4.90;3.88;;;;;;;20.05;nan;100527.25;5030486;28;20041;-75
2021/08/19 09:56:32;;;;;;;6.43;3.78;;;;;;;20.27;nan;100526.91;5029955;28;20033;-75
2021/08/19 09:59:39;;;;;;;5.03;3.83;;;;;;;20.35;nan;100526.66;5030270;28;20491;-74
2021/08/19 10:02:06;;;;;;;5.30;3.80;;;;;;;20.63;nan;100528.97;4929928;29;20571;-76
2021/08/19 10:04:32;;;;;;;6.78;4.43;;;;;;;20.51;nan;100523.44;4930593;29;20497;-76
2021/08/19 10:06:58;;;;;;;4.78;3.65;;;;;;;20.67;nan;100522.13;4979438;28;20080;-76
2021/08/19 10:09:24;;;;;;;6.13;4.03;;;;;;;20.72;nan;100530.34;5030473;28;20033;-76
2021/08/19 10:11:51;;;;;;;4.63;3.75;;;;;;;20.56;nan;100526.31;5029302;28;20083;-76
2021/08/19 10:14:22;;;;;;;5.55;3.70;;;;;;;20.32;nan;100516.34;5029726;28;20030;-76
2021/08/19 10:16:48;;;;;;;5.30;4.22;;;;;;;20.37;nan;100521.88;5030116;28;20053;-75
2021/08/19 10:19:28;;;;;;;5.57;4.00;;;;;;;20.24;nan;100511.25;5029504;28;20048;-75
2021/08/19 10:22:03;;;;;;;6.20;3.88;;;;;;;20.30;nan;100511.19;5030470;28;20099;-76
2021/08/19 10:24:34;;;;;;;5.43;4.30;;;;;;;20.44;nan;100503.03;5012323;28;20494;-76
2021/08/19 10:27:07;;;;;;;4.57;3.47;;;;;;;20.49;nan;100506.72;5029700;28;20046;-76
2021/08/19 10:29:52;;;;;;;4.65;3.80;;;;;;;20.72;nan;100508.03;5029960;28;20025;-75
2021/08/19 10:32:23;;;;;;;5.35;4.40;;;;;;;20.76;nan;100502.00;5028912;28;20025;-76
2021/08/19 10:34:53;;;;;;;7.15;4.53;;;;;;;20.75;nan;100507.59;5010054;28;20040;-76
2021/08/19 10:37:18;;;;;;;5.55;4.30;;;;;;;20.83;nan;100503.78;5006481;28;20095;-76
2021/08/19 10:39:44;;;;;;;6.72;3.92;;;;;;;20.88;nan;100509.34;5029397;28;20041;-76
2021/08/19 10:42:10;;;;;;;4.68;4.18;;;;;;;20.87;nan;100503.13;5028901;28;20037;-76
2021/08/19 10:44:45;;;;;;;5.80;4.65;;;;;;;20.68;nan;100496.88;5029564;28;20033;-75
2021/08/19 10:47:35;;;;;;;5.70;4.55;;;;;;;20.73;nan;100501.59;5029595;28;20083;-76
2021/08/19 10:50:22;;;;;;;6.18;4.40;;;;;;;20.79;nan;100506.13;5028525;28;20033;-76
2021/08/19 10:52:48;;;;;;;5.63;3.97;;;;;;;20.64;nan;100492.16;5004589;28;20034;-76
2021/08/19 10:55:15;;;;;;;5.82;4.50;;;;;;;20.74;nan;100503.28;5029668;28;20103;-75
2021/08/19 10:57:45;;;;;;;5.53;4.68;;;;;;;20.76;nan;100506.53;5029612;28;20577;-75
2021/08/19 11:00:11;;;;;;;5.80;4.43;;;;;;;20.64;nan;100501.09;5028989;28;20037;-76
2021/08/19 11:02:42;;;;;;;6.75;4.43;;;;;;;20.38;nan;100494.00;5029002;28;20437;-76
2021/08/19 11:05:11;;;;;;;5.07;3.80;;;;;;;20.44;nan;100495.81;5011553;28;20072;-76
2021/08/19 11:07:52;;;;;;;6.45;4.80;;;;;;;20.43;nan;100498.72;5029560;28;20033;-76
2021/08/19 11:10:28;;;;;;;5.85;4.35;;;;;;;20.43;nan;100499.53;5011653;28;20393;-76
2021/08/19 11:13:00;;;;;;;6.25;4.32;;;;;;;20.34;nan;100504.34;5029599;28;20514;-75
2021/08/19 11:15:25;;;;;;;4.85;3.65;;;;;;;20.17;nan;100503.22;5029541;28;20064;-76
2021/08/19 11:17:56;;;;;;;7.95;5.50;;;;;;;20.10;nan;100505.94;4992868;28;20062;-75
2021/08/19 11:20:29;;;;;;;5.40;3.97;;;;;;;19.86;nan;100502.13;5006338;28;20510;-76
2021/08/19 11:23:05;;;;;;;5.55;3.72;;;;;;;19.81;nan;100503.81;5009827;28;20052;-76
2021/08/19 11:25:32;;;;;;;4.25;3.28;;;;;;;19.83;nan;100499.03;5004386;28;20494;-76
2021/08/19 11:28:19;;;;;;;4.40;3.42;;;;;;;19.98;nan;100501.47;5026477;28;20037;-75
2021/08/19 11:30:49;;;;;;;3.88;3.20;;;;;;;20.07;nan;100500.16;5027904;28;20038;-75
2021/08/19 11:33:20;;;;;;;5.43;3.50;;;;;;;20.04;nan;100501.41;5006261;28;20075;-76
2021/08/19 11:35:48;;;;;;;;;;;;;;;19.99;nan;100506.59;5029162;28;20125;-76
2021/08/19 11:38:22;;;;;;;4.65;3.10;;;;;;;19.91;nan;100496.13;5009482;28;19917;-75
2021/08/19 11:40:49;;;;;;;3.97;2.92;;;;;;;19.98;nan;100504.97;5028379;28;20510;-75
2021/08/19 11:43:27;;;;;;;4.22;3.00;;;;;;;19.96;nan;100492.81;5027035;28;20406;-76